This is the latest recevied weather packets stored in our database for station/object W2SBL-1. If no packets are shown the sender has not sent any weather packets the latest 10 day(s).
| Time | Temp. | Humidity | Pressure | Rain* | Wind** | Luminosity | Snow |
|---|---|---|---|---|---|---|---|
| 1778068655 | 18.89° C | 47% | 1011.2 hPa | - | - | - | - |
| 1778067754 | 18.33° C | 47% | 1011 hPa | - | - | - | - |
| 1778066854 | 17.22° C | 48% | 1011 hPa | - | - | - | - |
| 1778065954 | 16.67° C | 49% | 1011.1 hPa | - | - | - | - |
| 1778065054 | 16.67° C | 49% | 1010.9 hPa | - | - | - | - |
| 1778064154 | 16.67° C | 49% | 1010.8 hPa | - | - | - | - |
| 1778063254 | 16.11° C | 49% | 1010.8 hPa | - | - | - | - |
| 1778062354 | 16.11° C | 49% | 1010.7 hPa | - | - | - | - |
| 1778061454 | 16.11° C | 49% | 1010.7 hPa | - | - | - | - |
| 1778060554 | -1.11° C | 49% | 983.2 hPa | - | - | - | - |
| 1778059654 | 16.11° C | 49% | 1010.9 hPa | - | - | - | - |
| 1778058754 | 16.11° C | 49% | 1010.9 hPa | - | - | - | - |
| 1778057854 | 16.11° C | 49% | 1010.9 hPa | - | - | - | - |
| 1778056953 | 16.11° C | 49% | 1011 hPa | - | - | - | - |
| 1778056053 | 16.11° C | 49% | 1011.1 hPa | - | - | - | - |
| 1778055153 | 16.67° C | 49% | 1011.1 hPa | - | - | - | - |
| 1778054253 | 16.67° C | 49% | 1011.1 hPa | - | - | - | - |
| 1778053353 | 16.67° C | 49% | 1011.4 hPa | - | - | - | - |
| 1778052453 | 16.67° C | 49% | 1011.5 hPa | - | - | - | - |
| 1778051553 | 16.67° C | 49% | 1011.5 hPa | - | - | - | - |
| 1778050653 | 16.67° C | 49% | 1011.4 hPa | - | - | - | - |
| 1778049753 | 16.67° C | 49% | 1011.4 hPa | - | - | - | - |
| 1778048853 | 16.67° C | 49% | 1011.4 hPa | - | - | - | - |
| 1778047953 | 16.67° C | 48% | 1011.4 hPa | - | - | - | - |
| 1778047053 | 16.67° C | 49% | 1011.3 hPa | - | - | - | - |
* Rain since midnight (hover to see other rain measurements)
** Current wind speed in m/s (hover to see current wind gust speed)